createdAt,value
2019-05-02T00:01:36.190Z,14.15
2019-05-02T00:04:05.300Z,14.12
2019-05-02T00:06:38.046Z,14.10
2019-05-02T00:09:09.156Z,14.15
2019-05-02T00:11:37.898Z,14.18
2019-05-02T00:14:07.506Z,14.22
2019-05-02T00:16:36.080Z,14.29
2019-05-02T00:19:09.274Z,14.33
2019-05-02T00:21:38.218Z,14.35
2019-05-02T00:24:07.605Z,14.39
2019-05-02T00:26:36.193Z,14.40
2019-05-02T00:29:04.825Z,14.38
2019-05-02T00:31:33.469Z,14.33
2019-05-02T00:34:02.098Z,14.32
2019-05-02T00:36:30.747Z,14.28
2019-05-02T00:38:59.385Z,14.23
2019-05-02T00:41:27.961Z,14.16
2019-05-02T00:43:56.459Z,14.09
2019-05-02T00:46:25.093Z,14.03
2019-05-02T00:48:59.856Z,14.01
2019-05-02T00:51:26.767Z,13.99
2019-05-02T00:53:56.093Z,13.98
2019-05-02T00:56:24.708Z,14.02
2019-05-02T00:58:53.351Z,14.06
2019-05-02T01:01:31.021Z,14.10
2019-05-02T01:04:07.514Z,14.14
2019-05-02T01:06:36.468Z,14.11
2019-05-02T01:09:10.968Z,14.12
2019-05-02T01:11:40.506Z,14.11
2019-05-02T01:14:09.145Z,14.12
2019-05-02T01:16:37.783Z,14.12
2019-05-02T01:19:06.423Z,14.19
2019-05-02T01:21:38.837Z,14.21
2019-05-02T01:24:05.441Z,14.24
2019-05-02T01:26:35.645Z,14.27
2019-05-02T01:29:11.624Z,14.28
2019-05-02T01:31:54.706Z,14.26
2019-05-02T01:34:34.819Z,14.26
2019-05-02T01:37:12.419Z,14.23
2019-05-02T01:39:42.683Z,14.18
2019-05-02T01:42:08.698Z,14.20
2019-05-02T01:44:37.994Z,14.20
2019-05-02T01:47:06.662Z,14.20
2019-05-02T01:49:35.273Z,14.23
2019-05-02T01:52:03.915Z,14.20
2019-05-02T01:54:32.450Z,14.20
2019-05-02T01:57:03.932Z,14.20
2019-05-02T01:59:34.005Z,14.18
2019-05-02T02:02:01.707Z,14.14
2019-05-02T02:04:30.392Z,14.13
2019-05-02T02:06:58.953Z,14.07
2019-05-02T02:09:27.598Z,14.06
2019-05-02T02:11:56.240Z,14.09
2019-05-02T02:14:24.801Z,14.07
2019-05-02T02:16:53.454Z,14.06
2019-05-02T02:19:23.738Z,14.03
2019-05-02T02:22:10.319Z,14.03
2019-05-02T02:24:46.555Z,14.02
2019-05-02T02:27:15.191Z,14.00
2019-05-02T02:29:44.405Z,13.97
2019-05-02T02:32:20.181Z,13.98
2019-05-02T02:34:44.340Z,13.98
2019-05-02T02:37:15.195Z,13.94
2019-05-02T02:39:48.412Z,13.90
2019-05-02T02:42:13.583Z,13.88
2019-05-02T02:44:46.563Z,13.86
2019-05-02T02:47:18.879Z,13.89
2019-05-02T02:49:45.505Z,13.90
2019-05-02T02:52:14.131Z,13.85
2019-05-02T02:54:44.777Z,13.77
2019-05-02T02:57:21.927Z,13.71
2019-05-02T02:59:43.435Z,13.59
2019-05-02T03:02:12.400Z,13.51
2019-05-02T03:04:44.013Z,13.48
2019-05-02T03:07:11.529Z,13.49
2019-05-02T03:09:40.201Z,13.48
2019-05-02T03:12:22.342Z,13.45
2019-05-02T03:14:52.663Z,13.36
2019-05-02T03:17:26.449Z,13.24
2019-05-02T03:19:54.399Z,13.30
2019-05-02T03:22:22.001Z,13.29
2019-05-02T03:24:50.571Z,13.20
2019-05-02T03:27:19.224Z,13.22
2019-05-02T03:29:47.780Z,13.24
2019-05-02T03:32:32.250Z,13.22
2019-05-02T03:34:52.225Z,13.22
2019-05-02T03:37:17.755Z,13.27
2019-05-02T03:39:49.679Z,13.23
2019-05-02T03:42:16.681Z,13.24
2019-05-02T03:44:55.216Z,13.15
2019-05-02T03:47:15.619Z,13.09
2019-05-02T03:49:48.969Z,13.01
2019-05-02T03:52:14.819Z,12.93
2019-05-02T03:54:50.029Z,12.89
2019-05-02T03:57:13.750Z,12.81
2019-05-02T03:59:42.429Z,12.64
2019-05-02T04:02:13.899Z,12.52
2019-05-02T04:04:41.520Z,12.45
2019-05-02T04:07:10.195Z,12.43
2019-05-02T04:09:42.234Z,12.34
2019-05-02T04:12:18.721Z,12.36
2019-05-02T04:14:39.815Z,12.36
2019-05-02T04:17:10.465Z,12.38
2019-05-02T04:19:39.700Z,12.47
2019-05-02T04:22:11.883Z,12.62
2019-05-02T04:24:39.672Z,12.81
2019-05-02T04:27:08.346Z,13.02
2019-05-02T04:29:37.421Z,13.25
2019-05-02T04:32:11.619Z,13.41
2019-05-02T04:34:36.379Z,13.57
2019-05-02T04:37:05.030Z,13.63
2019-05-02T04:39:33.659Z,13.70
2019-05-02T04:42:05.324Z,13.44
2019-05-02T04:44:43.597Z,13.13
2019-05-02T04:47:11.048Z,13.05
2019-05-02T04:49:36.002Z,13.12
2019-05-02T04:52:07.870Z,13.21
2019-05-02T04:54:34.036Z,13.29
2019-05-02T04:57:08.587Z,13.35
2019-05-02T04:59:36.000Z,13.38
2019-05-02T05:02:04.724Z,13.31
2019-05-02T05:04:42.001Z,13.24
2019-05-02T05:07:03.671Z,13.19
2019-05-02T05:09:32.181Z,13.13
2019-05-02T05:12:02.566Z,13.08
2019-05-02T05:14:38.181Z,13.05
2019-05-02T05:17:01.470Z,12.94
2019-05-02T05:19:32.739Z,12.93
2019-05-02T05:22:04.962Z,12.91
2019-05-02T05:24:42.168Z,12.94
2019-05-02T05:27:13.109Z,12.93
2019-05-02T05:29:38.812Z,12.94
2019-05-02T05:32:10.047Z,12.93
2019-05-02T05:34:38.046Z,12.96
2019-05-02T05:37:13.367Z,12.94
2019-05-02T05:39:42.914Z,13.00
2019-05-02T05:42:10.708Z,13.05
2019-05-02T05:44:39.867Z,13.19
2019-05-02T05:47:12.197Z,13.36
2019-05-02T05:49:38.843Z,13.62
2019-05-02T05:52:08.028Z,13.84
2019-05-02T05:54:38.412Z,14.01
2019-05-02T05:57:07.655Z,14.17
2019-05-02T05:59:38.032Z,14.31
2019-05-02T06:02:13.217Z,14.36
2019-05-02T06:04:38.740Z,14.52
2019-05-02T06:07:07.542Z,14.74
2019-05-02T06:09:36.158Z,14.95
2019-05-02T06:12:04.900Z,15.23
2019-05-02T06:14:34.586Z,15.41
2019-05-02T06:17:03.279Z,15.56
2019-05-02T06:19:32.050Z,15.79
2019-05-02T06:22:00.629Z,16.08
2019-05-02T06:24:29.200Z,16.41
2019-05-02T06:27:00.643Z,16.74
2019-05-02T06:29:29.204Z,17.03
2019-05-02T06:32:02.539Z,17.38
2019-05-02T06:34:31.180Z,17.75
2019-05-02T06:37:00.156Z,17.86
2019-05-02T06:39:31.952Z,18.04
2019-05-02T06:42:00.807Z,18.16
2019-05-02T06:44:29.518Z,18.09
2019-05-02T06:46:59.127Z,18.14
2019-05-02T06:49:28.559Z,17.90
2019-05-02T06:51:57.721Z,17.94
2019-05-02T06:54:26.377Z,17.94
2019-05-02T06:56:55.217Z,18.24
2019-05-02T06:59:23.857Z,18.40
2019-05-02T07:01:57.463Z,18.49
2019-05-02T07:04:24.877Z,18.37
2019-05-02T07:06:58.476Z,18.40
2019-05-02T07:09:23.997Z,18.21
2019-05-02T07:11:57.347Z,17.98
2019-05-02T07:14:24.067Z,18.36
2019-05-02T07:16:56.520Z,18.71
2019-05-02T07:19:29.194Z,19.04
2019-05-02T07:21:58.401Z,19.28
2019-05-02T07:24:30.577Z,19.56
2019-05-02T07:26:58.133Z,19.98
2019-05-02T07:29:26.852Z,20.65
2019-05-02T07:31:55.421Z,21.47
2019-05-02T07:34:24.110Z,22.27
2019-05-02T07:36:52.791Z,22.96
2019-05-02T07:39:21.525Z,22.83
2019-05-02T07:41:50.198Z,22.66
2019-05-02T07:44:18.901Z,23.41
2019-05-02T07:46:51.809Z,24.12
2019-05-02T07:49:20.657Z,24.72
2019-05-02T07:51:52.312Z,24.73
2019-05-02T07:54:19.303Z,23.38
2019-05-02T07:56:53.432Z,23.91
2019-05-02T07:59:23.434Z,24.86
2019-05-02T08:01:50.906Z,24.95
2019-05-02T08:04:19.659Z,24.99
2019-05-02T08:06:48.299Z,25.54
2019-05-02T08:09:16.954Z,26.22
2019-05-02T08:11:45.503Z,26.87
2019-05-02T08:14:14.192Z,26.56
2019-05-02T08:16:42.687Z,25.14
2019-05-02T08:19:11.266Z,25.31
2019-05-02T08:21:39.898Z,26.03
2019-05-02T08:24:08.558Z,26.59
2019-05-02T08:26:38.820Z,26.15
2019-05-02T08:29:09.038Z,25.07
2019-05-02T08:31:37.604Z,25.37
2019-05-02T08:34:14.617Z,26.31
2019-05-02T08:36:39.294Z,26.44
2019-05-02T08:39:08.043Z,26.82
2019-05-02T08:41:36.616Z,27.58
2019-05-02T08:44:05.398Z,26.69
2019-05-02T08:46:34.077Z,25.24
2019-05-02T08:49:02.586Z,24.52
2019-05-02T08:51:31.146Z,23.87
2019-05-02T08:53:59.722Z,22.84
2019-05-02T08:56:28.295Z,22.20
2019-05-02T08:58:56.937Z,21.99
2019-05-02T09:01:34.816Z,22.05
2019-05-02T09:03:57.038Z,22.40
2019-05-02T09:06:25.816Z,22.60
2019-05-02T09:08:54.504Z,22.90
2019-05-02T09:11:23.155Z,22.68
2019-05-02T09:13:52.577Z,22.53
2019-05-02T09:16:28.394Z,23.58
2019-05-02T09:18:54.078Z,24.79
2019-05-02T09:21:22.101Z,25.14
2019-05-02T09:23:51.737Z,28.16
2019-05-02T09:26:33.265Z,29.31
2019-05-02T09:28:51.695Z,28.73
2019-05-02T09:31:22.504Z,28.00
2019-05-02T09:33:52.072Z,27.77
2019-05-02T09:36:22.743Z,28.41
2019-05-02T09:38:55.899Z,29.01
2019-05-02T09:41:22.252Z,30.51
2019-05-02T09:43:52.384Z,30.51
2019-05-02T09:46:21.744Z,29.86
2019-05-02T09:48:51.967Z,28.78
2019-05-02T09:51:21.640Z,27.09
2019-05-02T09:53:52.384Z,26.69
2019-05-02T09:56:21.978Z,26.48
2019-05-02T09:58:56.204Z,25.79
2019-05-02T10:01:22.684Z,25.23
2019-05-02T10:03:51.854Z,25.28
2019-05-02T10:06:20.621Z,24.85
2019-05-02T10:08:49.327Z,24.97
2019-05-02T10:11:22.557Z,24.93
2019-05-02T10:13:48.418Z,24.66
2019-05-02T10:16:23.600Z,24.73
2019-05-02T10:18:52.287Z,24.83
2019-05-02T10:21:22.640Z,24.48
2019-05-02T10:23:58.561Z,24.93
2019-05-02T10:26:24.455Z,25.77
2019-05-02T10:28:53.357Z,26.79
2019-05-02T10:31:22.217Z,26.55
2019-05-02T10:33:52.913Z,25.93
2019-05-02T10:36:23.923Z,25.26
2019-05-02T10:38:54.904Z,24.87
2019-05-02T10:41:22.472Z,24.59
2019-05-02T10:43:55.197Z,24.88
2019-05-02T10:46:33.488Z,24.51
2019-05-02T10:49:02.009Z,24.78
2019-05-02T10:51:34.687Z,25.11
2019-05-02T10:54:05.628Z,25.58
2019-05-02T10:56:34.275Z,26.04
2019-05-02T10:59:02.908Z,26.30
2019-05-02T11:01:33.220Z,26.40
2019-05-02T11:04:06.489Z,25.72
2019-05-02T11:06:37.238Z,25.48
2019-05-02T11:09:08.445Z,24.87
2019-05-02T11:11:37.080Z,24.58
2019-05-02T11:14:13.323Z,24.92
2019-05-02T11:16:46.138Z,26.35
2019-05-02T11:19:28.426Z,28.73
2019-05-02T11:21:59.106Z,28.99
2019-05-02T11:24:27.404Z,26.75
2019-05-02T11:26:56.047Z,22.84
2019-05-02T11:29:24.606Z,21.19
2019-05-02T11:31:53.307Z,19.75
2019-05-02T11:34:22.205Z,18.71
2019-05-02T11:36:52.722Z,18.17
2019-05-02T11:39:28.664Z,17.80
2019-05-02T11:41:52.722Z,17.63
2019-05-02T11:44:22.607Z,17.84
2019-05-02T11:46:52.177Z,18.52
2019-05-02T11:49:23.902Z,19.29
2019-05-02T11:51:56.947Z,20.00
2019-05-02T11:54:22.857Z,20.56
2019-05-02T11:56:53.565Z,21.07
2019-05-02T11:59:27.633Z,22.14
2019-05-02T12:02:09.560Z,25.34
2019-05-02T12:04:36.336Z,28.39
2019-05-02T12:07:05.218Z,30.68
2019-05-02T12:09:33.913Z,33.54
2019-05-02T12:12:02.720Z,33.14
2019-05-02T12:14:32.872Z,34.44
2019-05-02T12:17:02.587Z,36.51
2019-05-02T12:19:32.272Z,37.58
2019-05-02T12:22:02.660Z,37.51
2019-05-02T12:24:31.981Z,37.51
2019-05-02T12:27:02.544Z,37.80
2019-05-02T12:29:31.221Z,38.17
2019-05-02T12:31:59.859Z,38.18
2019-05-02T12:34:28.582Z,37.18
2019-05-02T12:36:57.210Z,37.56
2019-05-02T12:39:25.893Z,38.36
2019-05-02T12:41:54.823Z,38.89
2019-05-02T12:44:23.840Z,37.83
2019-05-02T12:46:52.553Z,37.41
2019-05-02T12:49:26.964Z,35.84
2019-05-02T12:51:52.495Z,34.29
2019-05-02T12:54:22.038Z,32.27
2019-05-02T12:56:52.759Z,30.57
2019-05-02T12:59:22.530Z,30.14
2019-05-02T13:01:51.921Z,30.96
2019-05-02T13:04:22.781Z,32.19
2019-05-02T13:06:53.078Z,34.08
2019-05-02T13:09:23.420Z,34.66
2019-05-02T13:11:56.255Z,34.62
2019-05-02T13:14:26.682Z,35.59
2019-05-02T13:17:01.222Z,36.24
2019-05-02T13:19:40.151Z,35.30
2019-05-02T13:22:18.900Z,36.91
2019-05-02T13:24:54.145Z,36.76
2019-05-02T13:27:20.176Z,37.81
2019-05-02T13:29:52.289Z,38.00
2019-05-02T13:32:32.137Z,36.18
2019-05-02T13:35:08.489Z,35.56
2019-05-02T13:37:37.193Z,35.06
2019-05-02T13:40:09.072Z,34.88
2019-05-02T13:42:37.707Z,35.76
2019-05-02T13:45:09.486Z,34.56
2019-05-02T13:47:38.139Z,34.16
2019-05-02T13:50:08.048Z,34.02
2019-05-02T13:52:36.688Z,32.84
2019-05-02T13:55:13.058Z,32.60
2019-05-02T13:57:46.741Z,33.44
2019-05-02T14:00:17.492Z,33.95
2019-05-02T14:02:46.703Z,33.20
2019-05-02T14:05:16.501Z,34.87
2019-05-02T14:07:54.254Z,34.80
2019-05-02T14:10:39.229Z,33.86
2019-05-02T14:13:04.139Z,35.08
2019-05-02T14:15:34.425Z,35.48
2019-05-02T14:18:03.145Z,35.60
2019-05-02T14:20:33.051Z,35.21
2019-05-02T14:23:02.338Z,34.46
2019-05-02T14:25:32.106Z,33.35
2019-05-02T14:28:02.907Z,33.76
2019-05-02T14:30:38.738Z,33.20
2019-05-02T14:33:03.341Z,32.54
2019-05-02T14:35:36.820Z,32.97
2019-05-02T14:38:09.364Z,33.68
2019-05-02T14:40:48.114Z,33.65
2019-05-02T14:43:18.390Z,33.71
2019-05-02T14:45:51.008Z,33.16
2019-05-02T14:48:22.226Z,32.74
2019-05-02T14:50:52.092Z,31.07
2019-05-02T14:53:22.094Z,30.62
2019-05-02T14:55:53.179Z,29.99
2019-05-02T14:58:27.150Z,30.54
2019-05-02T15:00:56.871Z,31.95
2019-05-02T15:03:28.421Z,31.32
2019-05-02T15:05:58.983Z,30.95
2019-05-02T15:08:26.323Z,32.09
2019-05-02T15:10:56.652Z,31.57
2019-05-02T15:13:25.424Z,31.41
2019-05-02T15:15:54.102Z,30.50
2019-05-02T15:18:22.846Z,30.82
2019-05-02T15:20:52.093Z,30.58
2019-05-02T15:23:22.764Z,30.01
2019-05-02T15:25:55.862Z,30.18
2019-05-02T15:28:22.819Z,30.35
2019-05-02T15:31:05.629Z,30.01
2019-05-02T15:33:38.630Z,30.09
2019-05-02T15:36:08.907Z,30.13
2019-05-02T15:38:45.568Z,29.01
2019-05-02T15:41:12.641Z,29.04
2019-05-02T15:43:39.187Z,28.20
2019-05-02T15:46:08.908Z,28.14
2019-05-02T15:48:37.536Z,28.30
2019-05-02T15:51:08.909Z,28.24
2019-05-02T15:53:48.492Z,27.54
2019-05-02T15:56:19.729Z,27.66
2019-05-02T15:58:44.915Z,27.38
2019-05-02T16:01:17.962Z,27.57
2019-05-02T16:03:48.236Z,28.02
2019-05-02T16:06:23.931Z,28.12
2019-05-02T16:08:47.274Z,27.89
2019-05-02T16:11:19.494Z,27.79
2019-05-02T16:13:52.724Z,27.94
2019-05-02T16:16:21.962Z,27.57
2019-05-02T16:18:52.640Z,27.70
2019-05-02T16:21:28.856Z,27.33
2019-05-02T16:24:14.676Z,27.38
2019-05-02T16:26:44.916Z,27.22
2019-05-02T16:29:14.906Z,26.46
2019-05-02T16:31:44.629Z,25.66
2019-05-02T16:34:15.031Z,25.28
2019-05-02T16:36:43.703Z,25.18
2019-05-02T16:39:13.633Z,25.14
2019-05-02T16:41:49.189Z,24.83
2019-05-02T16:44:13.213Z,24.53
2019-05-02T16:46:43.826Z,23.91
2019-05-02T16:49:15.667Z,23.49
2019-05-02T16:51:43.153Z,23.12
2019-05-02T16:54:12.745Z,22.71
2019-05-02T16:56:45.929Z,22.42
2019-05-02T16:59:16.868Z,21.99
2019-05-02T17:01:45.155Z,21.45
2019-05-02T17:04:13.888Z,20.87
2019-05-02T17:06:42.716Z,20.33
2019-05-02T17:09:28.699Z,19.90
2019-05-02T17:11:55.786Z,19.63
2019-05-02T17:14:24.520Z,19.34
2019-05-02T17:16:55.884Z,19.01
2019-05-02T17:19:26.177Z,18.82
2019-05-02T17:21:56.460Z,18.62
2019-05-02T17:24:26.209Z,18.44
2019-05-02T17:26:54.678Z,18.29
2019-05-02T17:29:23.366Z,18.04
2019-05-02T17:31:55.500Z,17.96
2019-05-02T17:34:30.034Z,17.90
2019-05-02T17:36:52.789Z,17.80
2019-05-02T17:39:22.330Z,17.72
2019-05-02T17:41:52.335Z,17.66
2019-05-02T17:44:24.154Z,17.68
2019-05-02T17:46:58.552Z,17.56
2019-05-02T17:49:23.897Z,17.29
2019-05-02T17:52:18.301Z,17.23
2019-05-02T17:54:42.370Z,16.95
2019-05-02T17:57:11.862Z,16.95
2019-05-02T17:59:42.190Z,16.87
2019-05-02T18:02:12.374Z,16.79
2019-05-02T18:04:41.914Z,16.71
2019-05-02T18:07:11.689Z,16.61
2019-05-02T18:09:41.855Z,16.61
2019-05-02T18:12:12.653Z,16.57
2019-05-02T18:14:42.159Z,16.45
2019-05-02T18:17:12.618Z,16.41
2019-05-02T18:19:42.594Z,16.37
2019-05-02T18:22:23.423Z,16.37
2019-05-02T18:24:42.813Z,16.29
2019-05-02T18:27:12.928Z,16.16
2019-05-02T18:29:45.375Z,16.08
2019-05-02T18:32:12.794Z,16.07
2019-05-02T18:34:41.928Z,16.02
2019-05-02T18:37:10.539Z,15.92
2019-05-02T18:39:42.618Z,15.91
2019-05-02T18:42:16.620Z,15.79
2019-05-02T18:44:48.183Z,15.74
2019-05-02T18:47:20.114Z,15.71
2019-05-02T18:49:44.893Z,15.66
2019-05-02T18:52:13.540Z,15.61
2019-05-02T18:54:44.063Z,15.61
2019-05-02T18:57:12.607Z,15.47
2019-05-02T18:59:42.680Z,15.41
2019-05-02T19:02:11.512Z,15.31
2019-05-02T19:04:42.240Z,15.31
2019-05-02T19:07:14.333Z,15.28
2019-05-02T19:09:50.423Z,15.26
2019-05-02T19:12:19.426Z,15.06
2019-05-02T19:14:44.709Z,14.96
2019-05-02T19:17:13.349Z,15.02
2019-05-02T19:19:42.068Z,14.93
2019-05-02T19:22:13.241Z,14.78
2019-05-02T19:24:41.935Z,14.83
2019-05-02T19:27:12.923Z,14.78
2019-05-02T19:29:42.456Z,14.83
2019-05-02T19:32:12.251Z,14.87
2019-05-02T19:34:41.802Z,14.83
2019-05-02T19:37:12.176Z,14.70
2019-05-02T19:39:44.684Z,14.70
2019-05-02T19:42:17.124Z,14.60
2019-05-02T19:44:44.164Z,14.37
2019-05-02T19:47:17.362Z,14.33
2019-05-02T19:49:47.313Z,14.23
2019-05-02T19:52:13.585Z,14.14
2019-05-02T19:54:43.617Z,14.00
2019-05-02T19:57:17.184Z,13.92
2019-05-02T19:59:43.900Z,13.90
2019-05-02T20:02:12.655Z,13.92
2019-05-02T20:04:42.617Z,13.96
2019-05-02T20:07:14.178Z,13.67
2019-05-02T20:09:46.064Z,13.68
2019-05-02T20:12:15.604Z,13.81
2019-05-02T20:14:47.506Z,13.92
2019-05-02T20:17:20.209Z,13.89
2019-05-02T20:19:47.583Z,13.66
2019-05-02T20:22:16.395Z,13.31
2019-05-02T20:24:55.566Z,13.11
2019-05-02T20:27:23.141Z,12.86
2019-05-02T20:29:52.239Z,12.59
2019-05-02T20:32:22.083Z,12.62
2019-05-02T20:34:51.022Z,12.75
2019-05-02T20:37:21.924Z,12.84
2019-05-02T20:39:50.085Z,12.78
2019-05-02T20:42:18.737Z,12.74
2019-05-02T20:44:47.380Z,12.60
2019-05-02T20:47:18.983Z,12.39
2019-05-02T20:49:47.620Z,12.27
2019-05-02T20:52:16.271Z,12.37
2019-05-02T20:54:44.925Z,12.44
2019-05-02T20:57:13.563Z,12.40
2019-05-02T20:59:42.215Z,12.58
2019-05-02T21:02:13.752Z,12.86
2019-05-02T21:04:42.641Z,13.12
2019-05-02T21:07:15.840Z,13.37
2019-05-02T21:09:52.513Z,13.61
2019-05-02T21:12:21.452Z,13.74
2019-05-02T21:14:52.199Z,13.77
2019-05-02T21:17:22.095Z,13.74
2019-05-02T21:19:50.831Z,13.81
2019-05-02T21:22:22.400Z,13.88
2019-05-02T21:24:53.727Z,13.72
2019-05-02T21:27:22.413Z,13.52
2019-05-02T21:29:52.248Z,13.39
2019-05-02T21:32:22.870Z,13.28
2019-05-02T21:34:52.050Z,13.35
2019-05-02T21:37:22.599Z,13.49
2019-05-02T21:39:52.043Z,13.59
2019-05-02T21:42:22.583Z,13.53
2019-05-02T21:44:51.767Z,13.34
2019-05-02T21:47:22.321Z,13.13
2019-05-02T21:50:08.558Z,13.05
2019-05-02T21:52:38.762Z,13.01
2019-05-02T21:55:25.661Z,12.99
2019-05-02T21:57:54.304Z,12.94
2019-05-02T22:00:26.833Z,12.86
2019-05-02T22:02:55.466Z,12.56
2019-05-02T22:05:24.114Z,12.20
2019-05-02T22:07:52.763Z,12.08
2019-05-02T22:10:22.731Z,11.97
2019-05-02T22:12:53.884Z,11.95
2019-05-02T22:15:22.463Z,11.98
2019-05-02T22:17:52.285Z,12.08
2019-05-02T22:20:22.877Z,12.18
2019-05-02T22:22:52.039Z,12.15
2019-05-02T22:25:22.167Z,11.98
2019-05-02T22:27:53.880Z,11.86
2019-05-02T22:30:21.974Z,11.87
2019-05-02T22:32:51.704Z,11.90
2019-05-02T22:35:21.661Z,11.87
2019-05-02T22:37:52.155Z,11.87
2019-05-02T22:40:21.801Z,11.92
2019-05-02T22:42:52.344Z,11.95
2019-05-02T22:45:21.811Z,12.09
2019-05-02T22:47:52.051Z,12.19
2019-05-02T22:50:22.026Z,12.32
2019-05-02T22:52:52.231Z,12.36
2019-05-02T22:55:22.582Z,12.34
2019-05-02T22:57:51.808Z,12.35
2019-05-02T23:00:21.691Z,12.33
2019-05-02T23:02:52.374Z,12.36
2019-05-02T23:05:20.814Z,12.45
2019-05-02T23:07:49.499Z,12.56
2019-05-02T23:10:18.135Z,12.51
2019-05-02T23:12:46.717Z,12.32
2019-05-02T23:15:15.356Z,12.37
2019-05-02T23:17:43.995Z,12.46
2019-05-02T23:20:12.969Z,12.43
2019-05-02T23:22:41.887Z,12.18
2019-05-02T23:25:14.280Z,12.03
2019-05-02T23:27:47.056Z,12.20
2019-05-02T23:30:17.591Z,12.27
2019-05-02T23:32:46.241Z,12.30
2019-05-02T23:35:14.893Z,12.09
2019-05-02T23:37:43.546Z,11.94
2019-05-02T23:40:12.505Z,11.84
2019-05-02T23:42:41.726Z,11.72
2019-05-02T23:45:12.119Z,11.80
2019-05-02T23:47:42.149Z,11.96
2019-05-02T23:50:12.156Z,12.07
2019-05-02T23:52:40.841Z,12.07
2019-05-02T23:55:09.641Z,11.96
2019-05-02T23:57:38.284Z,11.78
